EGGWEGBB

Guest
Details From EGGW - London Luton
To EGBB - Birmingham
Flight Number -
Tags Generated
Created
Modified
Stats Distance 61 nm / 114 km
Max Altitude 0 ft / 0 m
Waypoints 2
Social Downloads 3
Likes 0
Share VATSIM

Download

Looking for another format? Having issues loading an existing format? Contact us
Advertisement - Login to hide

Notes

Generated

Route

EGGW EGBB

ID Type Via Altitude Latitude Longitude Leg Dist Tot Dist Heading (true) Name
O EGGW APT - 0 ft / 0 m 51.87202˚ -0.38355˚ - 0 nm - -
O EGBB APT - 0 ft / 0 m 52.45113˚ -1.75493˚ 61 nm 61 nm 305° / 304° -

Altitude Profile

Advertisement - Login to hide

EGGW

Details ICAO EGGW (LTN)
Name London Luton
Region United Kingdom
Timezone Europe/London (UTC+0.0)
Stats Elevation 526 ft / 160 m (AMSL)
Location 51.874629° -0.368450°
Runways 1
Magnetic Variation 0.572° W

METAR

EGGW 170220Z 29008KT 0100 R26/0325 FZFG VV/// 00/M00 Q1023

Decode

TAF

TAF AMD EGGW 170002Z 1700/1724 30010KT 3000 BR SCT003 BECMG 1700/1702 VRB04KT 0300 FG VV/// PROB40 TEMPO 1700/1709 FZFG BECMG 1709/1712 21010KT 5000 BR BKN005 TEMPO 1712/1718 0700 FG RADZ BKN001 PROB30 TEMPO 1715/1724 23015G25KT BECMG 1718/1721 30012KT 9999 NSW FEW030 PROB30 TEMPO 1721/1724 31015G25KT

Decode

Departure Runways

ID Width Length Bearing (true) Bearing (mag) Surface Threshold Offset Overrun Length
08 151 ft / 46 m 7,066 ft / 2,154 m 74.35° 74.92° Asphalt 0 ft / 0 m 200 ft / 61 m
26 151 ft / 46 m 7,066 ft / 2,154 m 254.38° 254.95° Asphalt 272 ft / 83 m 0 ft / 0 m

EGBB

Details ICAO EGBB (BHX)
Name Birmingham
Region United Kingdom
Timezone Europe/London (UTC+0.0)
Stats Elevation 327 ft / 100 m (AMSL)
Location 52.455966° -1.750378°
Runways 1
Magnetic Variation 1.139° W

METAR

EGBB 170220Z 18005KT 0500 FZFG VV/// M01/M01 Q1023

Decode

TAF

TAF AMD EGBB 170003Z 1700/1724 VRB02KT 9999 FEW008 PROB30 1700/1707 0300 FG FZFG VV/// BECMG 1707/1710 21010KT PROB30 TEMPO 1707/1711 4000 BR BKN006 TEMPO 1711/1719 -RADZ BKN006 PROB40 TEMPO 1711/1718 3000 RADZ BKN004 BECMG 1719/1722 30008KT

Decode

Destination Runways

ID Width Length Bearing (true) Bearing (mag) Surface Threshold Offset Overrun Length
15 151 ft / 46 m 8,477 ft / 2,584 m 145.87° 147.01° Asphalt 925 ft / 282 m 0 ft / 0 m
33 151 ft / 46 m 8,477 ft / 2,584 m 325.89° 327.03° Asphalt 958 ft / 292 m 0 ft / 0 m

Approach Navaids

Runway Type Ident Frequency Range Bearing (true) Bearing (mag) Slope Elevation
15 Localiser IBIR 110.10 MHz 18 nm / 33 km 145.89° 147.03° - 325 ft / 99 m (AMSL)
15 Glidescope IBIR 110.10 MHz 10 nm / 19 km 145.88° 147.02° 3.00° 325 ft / 99 m (AMSL)
15 DME IBIR 110.10 MHz 18 nm / 33 km - - - 349 ft / 106 m (AMSL)
33 Localiser IBM 110.10 MHz 18 nm / 33 km 325.87° 327.01° - 325 ft / 99 m (AMSL)
33 Glidescope IBM 110.10 MHz 10 nm / 19 km 325.88° 327.02° 3.00° 325 ft / 99 m (AMSL)
33 DME IBM 110.10 MHz 18 nm / 33 km - - - 327 ft / 100 m (AMSL)

Popular Alternatives